aviador You're here:

KSPA Decoded Metar

SPARTANBURG VOR in SC, USA
Report Time2018-05-20 23:15:00
UTC Time2018-05-20 23:28:03
Flight Rules vfr VFR
WindCalm
Visibility9999 m
Phenomena:N/A
Clouds:N/A
Expected CloudBase > 1,600 ft AGL from Temp-Dew spread
CeilingNone
Temp21°C (ISA +8)
Dew Point17°C (78% RH)
QNH1020 hPa
Density Alt1,949 ft
Elevation994 ft
Report Wrong Elevation
Raw Report
METAR KSPA 202315Z AUTO 00000KT 10SM CLR 21/17 A3012 RMK AO2 LTG DSNT
NE=

Extra information for KSPA:More info

Metar Taf Metar & Taf Last 4 Metars F.Rules Stats Wind Profile Meteogram Temp Stats Airport Information Weather charts Add Link Nearby VenuesMetar ALERT Operation Metar Decoded Social comments

AIRNAV info for KSPA